createdAt,value
2024-05-09T00:00:15.972Z,98690.00
2024-05-09T00:00:29.710Z,98690.00
2024-05-09T00:00:35.990Z,98690.00
2024-05-09T00:00:41.299Z,98688.00
2024-05-09T00:00:50.286Z,98688.00
2024-05-09T00:01:00.616Z,98690.00
2024-05-09T00:01:10.689Z,98688.00
2024-05-09T00:01:20.835Z,98686.00
2024-05-09T00:01:31.067Z,98686.00
2024-05-09T00:01:41.153Z,98688.00
2024-05-09T00:01:51.075Z,98690.00
2024-05-09T00:02:01.548Z,98686.00
2024-05-09T00:02:11.519Z,98686.00
2024-05-09T00:02:21.595Z,98686.00
2024-05-09T00:02:31.967Z,98688.00
2024-05-09T00:02:41.970Z,98688.00
2024-05-09T00:02:52.023Z,98688.00
2024-05-09T00:03:02.352Z,98688.00
2024-05-09T00:03:12.727Z,98686.00
2024-05-09T00:03:22.532Z,98686.00
2024-05-09T00:03:32.809Z,98684.00
2024-05-09T00:03:42.939Z,98688.00
2024-05-09T00:03:53.041Z,98686.00
2024-05-09T00:04:03.392Z,98684.00
2024-05-09T00:04:13.365Z,98686.00
2024-05-09T00:04:23.485Z,98684.00
2024-05-09T00:04:33.469Z,98686.00
2024-05-09T00:04:43.542Z,98684.00
2024-05-09T00:04:53.616Z,98686.00
2024-05-09T00:05:03.764Z,98684.00
2024-05-09T00:05:13.885Z,98684.00
2024-05-09T00:05:24.018Z,98684.00
2024-05-09T00:05:34.151Z,98684.00
2024-05-09T00:05:44.527Z,98684.00
2024-05-09T00:05:54.191Z,98684.00
2024-05-09T00:06:04.486Z,98684.00
2024-05-09T00:06:14.562Z,98682.00
2024-05-09T00:06:24.577Z,98682.00
2024-05-09T00:06:34.588Z,98682.00
2024-05-09T00:06:44.611Z,98684.00
2024-05-09T00:06:54.621Z,98684.00
2024-05-09T00:07:04.631Z,98684.00
2024-05-09T00:07:14.623Z,98682.00
2024-05-09T00:07:24.651Z,98684.00
2024-05-09T00:07:34.662Z,98688.00
2024-05-09T00:07:44.683Z,98682.00
2024-05-09T00:07:54.803Z,98684.00
2024-05-09T00:08:05.005Z,98682.00
2024-05-09T00:08:14.948Z,98684.00
2024-05-09T00:08:24.914Z,98684.00
2024-05-09T00:08:35.141Z,98684.00
2024-05-09T00:08:45.125Z,98688.00
2024-05-09T00:08:55.116Z,98688.00
2024-05-09T00:09:05.498Z,98688.00
2024-05-09T00:09:15.492Z,98688.00
2024-05-09T00:09:25.630Z,98686.00
2024-05-09T00:09:35.908Z,98688.00
2024-05-09T00:09:45.912Z,98690.00
2024-05-09T00:09:55.923Z,98688.00
2024-05-09T00:10:09.232Z,98686.00
2024-05-09T00:10:25.105Z,98684.00
2024-05-09T00:10:34.571Z,98684.00
2024-05-09T00:10:38.440Z,98686.00
2024-05-09T00:10:46.211Z,98684.00
2024-05-09T00:10:56.331Z,98682.00
2024-05-09T00:11:06.309Z,98684.00
2024-05-09T00:11:16.559Z,98682.00
2024-05-09T00:11:26.644Z,98682.00
2024-05-09T00:11:36.610Z,98682.00
2024-05-09T00:11:46.761Z,98684.00
2024-05-09T00:11:56.838Z,98682.00
2024-05-09T00:12:06.998Z,98682.00
2024-05-09T00:12:16.946Z,98682.00
2024-05-09T00:12:27.011Z,98682.00
2024-05-09T00:12:36.998Z,98682.00
2024-05-09T00:12:47.116Z,98682.00
2024-05-09T00:12:57.398Z,98684.00
2024-05-09T00:13:07.891Z,98682.00
2024-05-09T00:13:17.423Z,98680.00
2024-05-09T00:13:27.802Z,98684.00
2024-05-09T00:13:37.820Z,98682.00
2024-05-09T00:13:47.968Z,98682.00
2024-05-09T00:13:58.256Z,98686.00
2024-05-09T00:14:08.363Z,98680.00
2024-05-09T00:14:18.409Z,98686.00
2024-05-09T00:14:28.835Z,98688.00
2024-05-09T00:14:38.813Z,98680.00
2024-05-09T00:14:48.831Z,98680.00
2024-05-09T00:14:59.080Z,98682.00
2024-05-09T00:15:09.079Z,98682.00
2024-05-09T00:15:19.101Z,98680.00
2024-05-09T00:15:29.102Z,98682.00
2024-05-09T00:15:39.194Z,98682.00
2024-05-09T00:15:49.217Z,98686.00
2024-05-09T00:15:59.234Z,98682.00
2024-05-09T00:16:09.237Z,98682.00
2024-05-09T00:16:19.258Z,98682.00
2024-05-09T00:16:29.258Z,98682.00
2024-05-09T00:16:39.534Z,98682.00
2024-05-09T00:16:49.590Z,98682.00
2024-05-09T00:16:59.638Z,98682.00
2024-05-09T00:17:09.714Z,98682.00
2024-05-09T00:17:19.879Z,98680.00
2024-05-09T00:17:29.904Z,98682.00
2024-05-09T00:17:40.113Z,98682.00
2024-05-09T00:17:50.210Z,98684.00
2024-05-09T00:18:00.259Z,98684.00
2024-05-09T00:18:10.282Z,98680.00
2024-05-09T00:18:20.362Z,98682.00
2024-05-09T00:18:30.493Z,98680.00
2024-05-09T00:18:40.656Z,98680.00
2024-05-09T00:18:50.683Z,98680.00
2024-05-09T00:19:00.716Z,98682.00
2024-05-09T00:19:10.945Z,98682.00
2024-05-09T00:19:21.137Z,98682.00
2024-05-09T00:19:31.149Z,98682.00
2024-05-09T00:19:41.082Z,98686.00
2024-05-09T00:19:51.119Z,98682.00
2024-05-09T00:20:01.267Z,98686.00
2024-05-09T00:20:17.710Z,98682.00
2024-05-09T00:20:28.093Z,98686.00
2024-05-09T00:20:37.803Z,98684.00
2024-05-09T00:20:41.658Z,98682.00
2024-05-09T00:20:51.582Z,98684.00
2024-05-09T00:21:01.631Z,98682.00
2024-05-09T00:21:11.588Z,98684.00
2024-05-09T00:21:21.583Z,98684.00
2024-05-09T00:21:31.715Z,98684.00
2024-05-09T00:21:41.834Z,98686.00
2024-05-09T00:21:51.828Z,98682.00
2024-05-09T00:22:02.093Z,98684.00
2024-05-09T00:22:12.087Z,98682.00
2024-05-09T00:22:22.103Z,98684.00
2024-05-09T00:22:32.102Z,98682.00
2024-05-09T00:22:42.287Z,98684.00
2024-05-09T00:22:52.307Z,98684.00
2024-05-09T00:23:02.379Z,98684.00
2024-05-09T00:23:13.299Z,98682.00
2024-05-09T00:23:22.553Z,98682.00
2024-05-09T00:23:32.736Z,98682.00
2024-05-09T00:23:42.969Z,98682.00
2024-05-09T00:23:52.979Z,98680.00
2024-05-09T00:24:03.111Z,98682.00
2024-05-09T00:24:13.308Z,98682.00
2024-05-09T00:24:23.331Z,98682.00
2024-05-09T00:24:33.343Z,98680.00
2024-05-09T00:24:43.712Z,98680.00
2024-05-09T00:24:53.719Z,98678.00
2024-05-09T00:25:03.721Z,98680.00
2024-05-09T00:25:13.706Z,98680.00
2024-05-09T00:25:23.838Z,98680.00
2024-05-09T00:25:33.833Z,98678.00
2024-05-09T00:25:44.366Z,98678.00
2024-05-09T00:25:54.260Z,98678.00
2024-05-09T00:26:04.321Z,98680.00
2024-05-09T00:26:14.385Z,98678.00
2024-05-09T00:26:24.505Z,98678.00
2024-05-09T00:26:34.472Z,98680.00
2024-05-09T00:26:44.539Z,98678.00
2024-05-09T00:26:54.560Z,98680.00
2024-05-09T00:27:04.721Z,98676.00
2024-05-09T00:27:14.721Z,98680.00
2024-05-09T00:27:24.839Z,98680.00
2024-05-09T00:27:35.120Z,98678.00
2024-05-09T00:27:45.105Z,98678.00
2024-05-09T00:27:55.109Z,98680.00
2024-05-09T00:28:05.123Z,98676.00
2024-05-09T00:28:15.142Z,98678.00
2024-05-09T00:28:25.147Z,98678.00
2024-05-09T00:28:35.220Z,98680.00
2024-05-09T00:28:45.268Z,98680.00
2024-05-09T00:28:55.414Z,98680.00
2024-05-09T00:29:05.358Z,98680.00
2024-05-09T00:29:15.408Z,98680.00
2024-05-09T00:29:25.522Z,98680.00
2024-05-09T00:29:35.593Z,98680.00
2024-05-09T00:29:45.609Z,98680.00
2024-05-09T00:29:55.630Z,98678.00
2024-05-09T00:30:07.308Z,98680.00
2024-05-09T00:30:24.188Z,98678.00
2024-05-09T00:30:33.414Z,98678.00
2024-05-09T00:30:37.195Z,98682.00
2024-05-09T00:30:45.832Z,98682.00
2024-05-09T00:30:55.862Z,98678.00
2024-05-09T00:31:05.852Z,98680.00
2024-05-09T00:31:15.852Z,98678.00
2024-05-09T00:31:25.985Z,98680.00
2024-05-09T00:31:35.981Z,98680.00
2024-05-09T00:31:46.141Z,98678.00
2024-05-09T00:31:56.190Z,98680.00
2024-05-09T00:32:06.458Z,98680.00
2024-05-09T00:32:16.422Z,98682.00
2024-05-09T00:32:26.795Z,98682.00
2024-05-09T00:32:36.698Z,98680.00
2024-05-09T00:32:46.673Z,98678.00
2024-05-09T00:32:56.821Z,98680.00
2024-05-09T00:33:08.255Z,98678.00
2024-05-09T00:33:16.965Z,98680.00
2024-05-09T00:33:27.005Z,98680.00
2024-05-09T00:33:36.949Z,98680.00
2024-05-09T00:33:47.129Z,98680.00
2024-05-09T00:33:57.369Z,98680.00
2024-05-09T00:34:07.392Z,98684.00
2024-05-09T00:34:17.411Z,98682.00
2024-05-09T00:34:27.363Z,98680.00
2024-05-09T00:34:37.361Z,98680.00
2024-05-09T00:34:47.386Z,98680.00
2024-05-09T00:34:57.467Z,98680.00
2024-05-09T00:35:07.509Z,98682.00
2024-05-09T00:35:17.580Z,98682.00
2024-05-09T00:35:27.779Z,98680.00
2024-05-09T00:35:38.087Z,98682.00
2024-05-09T00:35:47.643Z,98680.00
2024-05-09T00:35:57.639Z,98680.00
2024-05-09T00:36:07.665Z,98680.00
2024-05-09T00:36:17.673Z,98682.00
2024-05-09T00:36:27.670Z,98680.00
2024-05-09T00:36:37.677Z,98680.00
2024-05-09T00:36:47.674Z,98680.00
2024-05-09T00:36:57.689Z,98678.00
2024-05-09T00:37:08.074Z,98678.00
2024-05-09T00:37:18.095Z,98676.00
2024-05-09T00:37:28.096Z,98680.00
2024-05-09T00:37:38.106Z,98680.00
2024-05-09T00:37:48.138Z,98680.00
2024-05-09T00:37:58.229Z,98678.00
2024-05-09T00:38:08.505Z,98678.00
2024-05-09T00:38:18.348Z,98676.00
2024-05-09T00:38:28.436Z,98676.00
2024-05-09T00:38:38.510Z,98676.00
2024-05-09T00:38:48.813Z,98676.00
2024-05-09T00:38:58.836Z,98676.00
2024-05-09T00:39:08.896Z,98676.00
2024-05-09T00:39:18.943Z,98678.00
2024-05-09T00:39:28.948Z,98678.00
2024-05-09T00:39:38.958Z,98678.00
2024-05-09T00:39:48.952Z,98678.00
2024-05-09T00:39:58.954Z,98678.00
2024-05-09T00:40:15.106Z,98678.00
2024-05-09T00:40:27.244Z,98676.00
2024-05-09T00:40:35.773Z,98674.00
2024-05-09T00:40:41.705Z,98678.00
2024-05-09T00:40:49.289Z,98676.00
2024-05-09T00:40:59.392Z,98678.00
2024-05-09T00:41:09.462Z,98674.00
2024-05-09T00:41:19.934Z,98678.00
2024-05-09T00:41:29.813Z,98674.00
2024-05-09T00:41:39.926Z,98674.00
2024-05-09T00:41:49.956Z,98676.00
2024-05-09T00:42:00.196Z,98674.00
2024-05-09T00:42:10.326Z,98674.00
2024-05-09T00:42:20.324Z,98674.00
2024-05-09T00:42:30.595Z,98676.00
2024-05-09T00:42:40.583Z,98674.00
2024-05-09T00:42:50.610Z,98674.00
2024-05-09T00:43:00.616Z,98674.00
2024-05-09T00:43:11.218Z,98676.00
2024-05-09T00:43:20.669Z,98676.00
2024-05-09T00:43:30.672Z,98674.00
2024-05-09T00:43:40.668Z,98674.00
2024-05-09T00:43:50.861Z,98672.00
2024-05-09T00:44:00.922Z,98674.00
2024-05-09T00:44:11.115Z,98676.00
2024-05-09T00:44:21.207Z,98676.00
2024-05-09T00:44:31.295Z,98674.00
2024-05-09T00:44:41.333Z,98674.00
2024-05-09T00:44:51.335Z,98674.00
2024-05-09T00:45:01.428Z,98674.00
2024-05-09T00:45:11.409Z,98672.00
2024-05-09T00:45:21.412Z,98674.00
2024-05-09T00:45:31.425Z,98672.00
2024-05-09T00:45:41.441Z,98672.00
2024-05-09T00:45:51.436Z,98670.00
2024-05-09T00:46:01.477Z,98674.00
2024-05-09T00:46:11.486Z,98674.00
2024-05-09T00:46:21.469Z,98674.00
2024-05-09T00:46:31.502Z,98674.00
2024-05-09T00:46:41.485Z,98674.00
2024-05-09T00:46:51.568Z,98674.00
2024-05-09T00:47:01.612Z,98674.00
2024-05-09T00:47:11.797Z,98674.00
2024-05-09T00:47:21.765Z,98672.00
2024-05-09T00:47:31.826Z,98672.00
2024-05-09T00:47:41.860Z,98674.00
2024-05-09T00:47:52.117Z,98674.00
2024-05-09T00:48:02.207Z,98672.00
2024-05-09T00:48:14.113Z,98674.00
2024-05-09T00:48:22.211Z,98674.00
2024-05-09T00:48:32.307Z,98672.00
2024-05-09T00:48:42.355Z,98672.00
2024-05-09T00:48:52.354Z,98672.00
2024-05-09T00:49:02.661Z,98672.00
2024-05-09T00:49:12.665Z,98672.00
2024-05-09T00:49:22.897Z,98674.00
2024-05-09T00:49:32.761Z,98674.00
2024-05-09T00:49:43.002Z,98674.00
2024-05-09T00:49:52.886Z,98674.00
2024-05-09T00:50:04.151Z,98672.00
2024-05-09T00:50:19.220Z,98672.00
2024-05-09T00:50:29.916Z,98672.00
2024-05-09T00:50:36.520Z,98672.00
2024-05-09T00:50:43.055Z,98672.00
2024-05-09T00:50:53.104Z,98676.00
2024-05-09T00:51:03.271Z,98672.00
2024-05-09T00:51:13.307Z,98672.00
2024-05-09T00:51:23.293Z,98672.00
2024-05-09T00:51:33.333Z,98670.00
2024-05-09T00:51:43.351Z,98670.00
2024-05-09T00:51:53.340Z,98670.00
2024-05-09T00:52:03.338Z,98670.00
2024-05-09T00:52:13.471Z,98672.00
2024-05-09T00:52:23.499Z,98672.00
2024-05-09T00:52:33.501Z,98670.00
2024-05-09T00:52:43.548Z,98670.00
2024-05-09T00:52:53.584Z,98672.00
2024-05-09T00:53:03.665Z,98670.00
2024-05-09T00:53:14.086Z,98670.00
2024-05-09T00:53:24.033Z,98672.00
2024-05-09T00:53:34.151Z,98672.00
2024-05-09T00:53:44.085Z,98670.00
2024-05-09T00:53:54.106Z,98672.00
2024-05-09T00:54:04.103Z,98672.00
2024-05-09T00:54:14.096Z,98672.00
2024-05-09T00:54:24.225Z,98672.00
2024-05-09T00:54:34.256Z,98670.00
2024-05-09T00:54:44.244Z,98670.00
2024-05-09T00:54:54.508Z,98672.00
2024-05-09T00:55:04.505Z,98670.00
2024-05-09T00:55:14.520Z,98670.00
2024-05-09T00:55:24.535Z,98670.00
2024-05-09T00:55:34.557Z,98670.00
2024-05-09T00:55:44.872Z,98672.00
2024-05-09T00:55:54.625Z,98672.00
2024-05-09T00:56:04.732Z,98670.00
2024-05-09T00:56:14.741Z,98670.00
2024-05-09T00:56:24.913Z,98670.00
2024-05-09T00:56:34.846Z,98670.00
2024-05-09T00:56:44.849Z,98670.00
2024-05-09T00:56:54.975Z,98670.00
2024-05-09T00:57:05.016Z,98670.00
2024-05-09T00:57:15.041Z,98668.00
2024-05-09T00:57:25.049Z,98668.00
2024-05-09T00:57:35.063Z,98666.00
2024-05-09T00:57:45.333Z,98668.00
2024-05-09T00:57:55.323Z,98666.00
2024-05-09T00:58:05.393Z,98666.00
2024-05-09T00:58:15.398Z,98668.00
2024-05-09T00:58:25.516Z,98666.00
2024-05-09T00:58:35.521Z,98668.00
2024-05-09T00:58:45.610Z,98666.00
2024-05-09T00:58:55.609Z,98666.00
2024-05-09T00:59:05.709Z,98666.00
2024-05-09T00:59:15.794Z,98668.00
2024-05-09T00:59:26.050Z,98664.00
2024-05-09T00:59:36.158Z,98668.00
2024-05-09T00:59:46.071Z,98668.00
2024-05-09T00:59:56.071Z,98668.00
2024-05-09T01:00:15.066Z,98666.00
2024-05-09T01:00:26.100Z,98664.00
2024-05-09T01:00:31.862Z,98664.00
2024-05-09T01:00:39.801Z,98664.00
2024-05-09T01:00:46.228Z,98668.00
2024-05-09T01:00:56.256Z,98664.00
2024-05-09T01:01:16.315Z,98662.00
2024-05-09T01:01:26.381Z,98664.00
2024-05-09T01:01:36.485Z,98662.00
2024-05-09T01:01:46.552Z,98666.00
2024-05-09T01:01:56.606Z,98664.00
2024-05-09T01:02:07.049Z,98664.00
2024-05-09T01:02:17.134Z,98664.00
2024-05-09T01:02:27.122Z,98664.00
2024-05-09T01:02:37.388Z,98664.00
2024-05-09T01:02:47.523Z,98664.00
2024-05-09T01:02:57.718Z,98666.00
2024-05-09T01:03:08.458Z,98664.00
2024-05-09T01:03:18.098Z,98666.00
2024-05-09T01:03:28.285Z,98664.00
2024-05-09T01:03:38.578Z,98664.00
2024-05-09T01:03:50.942Z,98662.00
2024-05-09T01:03:58.382Z,98666.00
2024-05-09T01:04:08.488Z,98664.00
2024-05-09T01:04:18.403Z,98664.00
2024-05-09T01:04:28.487Z,98666.00
2024-05-09T01:04:38.606Z,98664.00
2024-05-09T01:04:48.925Z,98662.00
2024-05-09T01:04:58.755Z,98662.00
2024-05-09T01:05:08.918Z,98664.00
2024-05-09T01:05:18.780Z,98664.00
2024-05-09T01:05:29.112Z,98664.00
2024-05-09T01:05:39.707Z,98662.00
2024-05-09T01:05:49.241Z,98664.00
2024-05-09T01:05:59.595Z,98668.00
2024-05-09T01:06:09.647Z,98666.00
2024-05-09T01:06:19.652Z,98666.00
2024-05-09T01:06:29.902Z,98664.00
2024-05-09T01:06:39.916Z,98666.00
2024-05-09T01:06:49.920Z,98666.00
2024-05-09T01:06:59.933Z,98666.00
2024-05-09T01:07:09.932Z,98666.00
2024-05-09T01:07:19.931Z,98664.00
2024-05-09T01:07:30.051Z,98666.00
2024-05-09T01:07:40.055Z,98666.00
2024-05-09T01:07:50.080Z,98668.00
2024-05-09T01:08:00.169Z,98666.00
2024-05-09T01:08:10.819Z,98666.00
2024-05-09T01:08:20.453Z,98668.00
2024-05-09T01:08:30.579Z,98668.00
2024-05-09T01:08:40.487Z,98668.00
2024-05-09T01:08:50.517Z,98668.00
2024-05-09T01:09:00.527Z,98664.00
2024-05-09T01:09:10.551Z,98668.00
2024-05-09T01:09:20.553Z,98666.00
2024-05-09T01:09:30.569Z,98668.00
2024-05-09T01:09:40.560Z,98664.00
2024-05-09T01:09:50.987Z,98668.00
2024-05-09T01:10:00.978Z,98666.00
2024-05-09T01:10:17.050Z,98664.00
2024-05-09T01:10:27.533Z,98668.00
2024-05-09T01:10:34.279Z,98666.00
2024-05-09T01:10:51.425Z,98670.00
2024-05-09T01:11:01.596Z,98666.00
2024-05-09T01:11:11.566Z,98664.00
2024-05-09T01:11:21.586Z,98668.00
2024-05-09T01:11:31.552Z,98664.00
2024-05-09T01:11:41.668Z,98664.00
2024-05-09T01:11:51.706Z,98666.00
2024-05-09T01:12:01.952Z,98666.00
2024-05-09T01:12:12.033Z,98666.00
2024-05-09T01:12:21.972Z,98664.00
2024-05-09T01:12:32.228Z,98666.00
2024-05-09T01:12:42.274Z,98662.00
2024-05-09T01:12:52.282Z,98664.00
2024-05-09T01:13:02.592Z,98664.00
2024-05-09T01:13:12.799Z,98664.00
2024-05-09T01:13:22.653Z,98664.00
2024-05-09T01:13:33.058Z,98664.00
2024-05-09T01:13:43.116Z,98666.00
2024-05-09T01:13:53.184Z,98670.00
2024-05-09T01:14:03.359Z,98664.00
2024-05-09T01:14:13.304Z,98666.00
2024-05-09T01:14:23.421Z,98666.00
2024-05-09T01:14:33.514Z,98664.00
2024-05-09T01:14:43.534Z,98664.00
2024-05-09T01:14:53.678Z,98666.00
2024-05-09T01:15:03.664Z,98666.00
2024-05-09T01:15:13.834Z,98666.00
2024-05-09T01:15:23.826Z,98666.00
2024-05-09T01:15:33.922Z,98666.00
2024-05-09T01:15:43.885Z,98666.00
2024-05-09T01:15:53.877Z,98664.00
2024-05-09T01:16:03.898Z,98666.00
2024-05-09T01:16:13.886Z,98666.00
2024-05-09T01:16:23.895Z,98666.00
2024-05-09T01:16:34.028Z,98666.00
2024-05-09T01:16:44.099Z,98668.00
2024-05-09T01:16:54.315Z,98668.00
2024-05-09T01:17:14.570Z,98666.00
2024-05-09T01:17:24.916Z,98668.00
2024-05-09T01:17:34.977Z,98668.00
2024-05-09T01:17:44.996Z,98668.00
2024-05-09T01:17:55.076Z,98666.00
2024-05-09T01:18:05.075Z,98670.00
2024-05-09T01:18:15.173Z,98668.00
2024-05-09T01:18:25.182Z,98668.00
2024-05-09T01:18:35.462Z,98670.00
2024-05-09T01:18:45.637Z,98666.00
2024-05-09T01:18:55.733Z,98668.00
2024-05-09T01:19:05.943Z,98670.00
2024-05-09T01:19:16.126Z,98666.00
2024-05-09T01:19:26.354Z,98670.00
2024-05-09T01:19:36.087Z,98666.00
2024-05-09T01:19:46.235Z,98668.00
2024-05-09T01:19:56.302Z,98672.00
2024-05-09T01:20:10.460Z,98670.00
2024-05-09T01:20:20.094Z,98668.00
2024-05-09T01:20:36.996Z,98668.00
2024-05-09T01:20:41.734Z,98668.00
2024-05-09T01:20:46.532Z,98666.00
2024-05-09T01:20:56.638Z,98666.00
2024-05-09T01:21:06.653Z,98672.00
2024-05-09T01:21:16.699Z,98670.00
2024-05-09T01:21:26.806Z,98672.00
2024-05-09T01:21:36.839Z,98668.00
2024-05-09T01:21:46.836Z,98668.00
2024-05-09T01:21:56.840Z,98668.00
2024-05-09T01:22:06.868Z,98670.00
2024-05-09T01:22:16.856Z,98670.00
2024-05-09T01:22:26.869Z,98670.00
2024-05-09T01:22:36.876Z,98672.00
2024-05-09T01:22:46.922Z,98672.00
2024-05-09T01:22:56.989Z,98670.00
2024-05-09T01:23:07.297Z,98670.00
2024-05-09T01:23:17.397Z,98670.00
2024-05-09T01:23:27.402Z,98670.00
2024-05-09T01:23:37.535Z,98670.00
2024-05-09T01:23:47.469Z,98668.00
2024-05-09T01:23:57.592Z,98668.00
2024-05-09T01:24:07.583Z,98672.00
2024-05-09T01:24:17.702Z,98668.00
2024-05-09T01:24:27.832Z,98670.00
2024-05-09T01:24:37.826Z,98670.00
2024-05-09T01:24:47.838Z,98672.00
2024-05-09T01:24:57.850Z,98670.00
2024-05-09T01:25:07.859Z,98666.00
2024-05-09T01:25:17.873Z,98668.00
2024-05-09T01:25:27.872Z,98668.00
2024-05-09T01:25:38.116Z,98666.00
2024-05-09T01:25:48.151Z,98668.00
2024-05-09T01:25:58.200Z,98668.00
2024-05-09T01:26:08.252Z,98668.00
2024-05-09T01:26:18.290Z,98668.00
2024-05-09T01:26:28.363Z,98668.00
2024-05-09T01:26:38.673Z,98668.00
2024-05-09T01:26:48.697Z,98668.00
2024-05-09T01:26:58.828Z,98668.00
2024-05-09T01:27:09.082Z,98668.00
2024-05-09T01:27:19.104Z,98668.00
2024-05-09T01:27:29.103Z,98670.00
2024-05-09T01:27:39.104Z,98666.00
2024-05-09T01:27:49.114Z,98668.00
2024-05-09T01:27:59.275Z,98668.00
2024-05-09T01:28:09.264Z,98668.00
2024-05-09T01:28:19.300Z,98666.00
2024-05-09T01:28:29.278Z,98666.00
2024-05-09T01:28:39.283Z,98668.00
2024-05-09T01:28:49.575Z,98664.00
2024-05-09T01:28:59.625Z,98664.00
2024-05-09T01:29:09.715Z,98664.00
2024-05-09T01:29:20.138Z,98664.00
2024-05-09T01:29:30.137Z,98666.00
2024-05-09T01:29:40.123Z,98664.00
2024-05-09T01:29:50.124Z,98664.00
2024-05-09T01:30:00.201Z,98660.00
2024-05-09T01:30:16.996Z,98662.00
2024-05-09T01:30:24.554Z,98658.00
2024-05-09T01:30:34.910Z,98660.00
2024-05-09T01:30:40.387Z,98662.00
2024-05-09T01:30:50.404Z,98660.00
2024-05-09T01:31:00.393Z,98660.00
2024-05-09T01:31:10.386Z,98660.00
2024-05-09T01:31:20.500Z,98660.00
2024-05-09T01:31:30.672Z,98664.00
2024-05-09T01:31:40.735Z,98664.00
2024-05-09T01:31:50.872Z,98666.00
2024-05-09T01:32:01.060Z,98662.00
2024-05-09T01:32:11.244Z,98664.00
2024-05-09T01:32:21.453Z,98664.00
2024-05-09T01:32:31.690Z,98666.00
2024-05-09T01:32:41.628Z,98664.00
2024-05-09T01:32:51.845Z,98666.00
2024-05-09T01:33:02.203Z,98662.00
2024-05-09T01:33:12.850Z,98664.00
2024-05-09T01:33:22.172Z,98662.00
2024-05-09T01:33:32.579Z,98664.00
2024-05-09T01:33:42.233Z,98664.00
2024-05-09T01:33:52.227Z,98664.00
2024-05-09T01:34:02.249Z,98662.00
2024-05-09T01:34:12.243Z,98662.00
2024-05-09T01:34:22.651Z,98662.00
2024-05-09T01:34:32.613Z,98664.00
2024-05-09T01:34:42.698Z,98664.00
2024-05-09T01:34:52.839Z,98662.00
2024-05-09T01:35:02.968Z,98662.00
2024-05-09T01:35:12.986Z,98662.00
2024-05-09T01:35:22.972Z,98662.00
2024-05-09T01:35:32.975Z,98662.00
2024-05-09T01:35:43.422Z,98664.00
2024-05-09T01:35:53.011Z,98664.00
2024-05-09T01:36:03.172Z,98664.00
2024-05-09T01:36:13.163Z,98664.00
2024-05-09T01:36:23.282Z,98662.00
2024-05-09T01:36:33.542Z,98662.00
2024-05-09T01:36:43.542Z,98664.00
2024-05-09T01:36:53.557Z,98662.00
2024-05-09T01:37:03.563Z,98662.00
2024-05-09T01:37:13.578Z,98664.00
2024-05-09T01:37:23.597Z,98662.00
2024-05-09T01:37:33.621Z,98662.00
2024-05-09T01:37:43.642Z,98662.00
2024-05-09T01:37:53.709Z,98662.00
2024-05-09T01:38:03.978Z,98662.00
2024-05-09T01:38:14.308Z,98662.00
2024-05-09T01:38:24.054Z,98658.00
2024-05-09T01:38:34.091Z,98658.00
2024-05-09T01:38:44.135Z,98658.00
2024-05-09T01:38:54.121Z,98660.00
2024-05-09T01:39:04.137Z,98658.00
2024-05-09T01:39:14.136Z,98658.00
2024-05-09T01:39:24.133Z,98658.00
2024-05-09T01:39:34.143Z,98662.00
2024-05-09T01:39:44.269Z,98660.00
2024-05-09T01:39:54.278Z,98660.00
2024-05-09T01:40:07.354Z,98660.00
2024-05-09T01:40:18.663Z,98660.00
2024-05-09T01:40:33.744Z,98662.00
2024-05-09T01:40:38.461Z,98662.00
2024-05-09T01:40:44.994Z,98662.00
2024-05-09T01:40:55.049Z,98662.00
2024-05-09T01:41:05.087Z,98660.00
2024-05-09T01:41:15.150Z,98662.00
2024-05-09T01:41:25.283Z,98662.00
2024-05-09T01:41:35.340Z,98664.00
2024-05-09T01:41:45.364Z,98662.00
2024-05-09T01:41:55.495Z,98662.00
2024-05-09T01:42:05.520Z,98658.00
2024-05-09T01:42:15.513Z,98662.00
2024-05-09T01:42:25.510Z,98662.00
2024-05-09T01:42:35.518Z,98660.00
2024-05-09T01:42:45.549Z,98660.00
2024-05-09T01:42:55.645Z,98658.00
2024-05-09T01:43:05.678Z,98658.00
2024-05-09T01:43:15.681Z,98662.00
2024-05-09T01:43:25.679Z,98660.00
2024-05-09T01:43:35.803Z,98662.00
2024-05-09T01:43:46.007Z,98660.00
2024-05-09T01:43:56.106Z,98662.00
2024-05-09T01:44:06.176Z,98660.00
2024-05-09T01:44:16.364Z,98660.00
2024-05-09T01:44:26.530Z,98660.00
2024-05-09T01:44:36.466Z,98662.00
2024-05-09T01:44:46.483Z,98660.00
2024-05-09T01:44:56.490Z,98662.00
2024-05-09T01:45:06.487Z,98660.00
2024-05-09T01:45:16.487Z,98660.00
2024-05-09T01:45:26.506Z,98660.00
2024-05-09T01:45:36.488Z,98662.00
2024-05-09T01:45:46.505Z,98660.00
2024-05-09T01:45:56.519Z,98664.00
2024-05-09T01:46:06.521Z,98664.00
2024-05-09T01:46:16.544Z,98662.00
2024-05-09T01:46:26.551Z,98664.00
2024-05-09T01:46:36.558Z,98664.00
2024-05-09T01:46:46.560Z,98664.00
2024-05-09T01:46:56.616Z,98666.00
2024-05-09T01:47:06.683Z,98664.00
2024-05-09T01:47:16.898Z,98666.00
2024-05-09T01:47:26.992Z,98664.00
2024-05-09T01:47:36.972Z,98664.00
2024-05-09T01:47:47.040Z,98664.00
2024-05-09T01:47:57.005Z,98664.00
2024-05-09T01:48:07.238Z,98664.00
2024-05-09T01:48:17.403Z,98666.00
2024-05-09T01:48:27.452Z,98664.00
2024-05-09T01:48:37.501Z,98664.00
2024-05-09T01:48:47.838Z,98666.00
2024-05-09T01:48:58.046Z,98664.00
2024-05-09T01:49:08.304Z,98662.00
2024-05-09T01:49:18.255Z,98666.00
2024-05-09T01:49:28.327Z,98664.00
2024-05-09T01:49:38.332Z,98662.00
2024-05-09T01:49:48.412Z,98662.00
2024-05-09T01:49:58.447Z,98662.00
2024-05-09T01:50:10.796Z,98662.00
2024-05-09T01:50:25.144Z,98664.00
2024-05-09T01:50:36.971Z,98666.00
2024-05-09T01:50:41.953Z,98664.00
2024-05-09T01:50:48.835Z,98664.00
2024-05-09T01:50:58.894Z,98664.00
2024-05-09T01:51:09.093Z,98664.00
2024-05-09T01:51:19.048Z,98664.00
2024-05-09T01:51:29.303Z,98662.00
2024-05-09T01:51:39.441Z,98664.00
2024-05-09T01:51:49.442Z,98664.00
2024-05-09T01:51:59.699Z,98664.00
2024-05-09T01:52:09.695Z,98666.00
2024-05-09T01:52:19.829Z,98664.00
2024-05-09T01:52:30.086Z,98664.00
2024-05-09T01:52:40.196Z,98666.00
2024-05-09T01:52:50.227Z,98664.00
2024-05-09T01:53:00.532Z,98666.00
2024-05-09T01:53:10.796Z,98662.00
2024-05-09T01:53:20.626Z,98668.00
2024-05-09T01:53:30.883Z,98664.00
2024-05-09T01:53:40.738Z,98664.00
2024-05-09T01:53:50.719Z,98664.00
2024-05-09T01:54:00.849Z,98664.00
2024-05-09T01:54:10.976Z,98662.00
2024-05-09T01:54:21.105Z,98662.00
2024-05-09T01:54:31.100Z,98666.00
2024-05-09T01:54:41.353Z,98666.00
2024-05-09T01:54:51.361Z,98666.00
2024-05-09T01:55:04.690Z,98664.00
2024-05-09T01:55:11.351Z,98666.00
2024-05-09T01:55:21.352Z,98666.00
2024-05-09T01:55:31.356Z,98668.00
2024-05-09T01:55:41.573Z,98666.00
2024-05-09T01:55:51.587Z,98664.00
2024-05-09T01:56:01.622Z,98664.00
2024-05-09T01:56:11.765Z,98664.00
2024-05-09T01:56:21.753Z,98666.00
2024-05-09T01:56:32.146Z,98666.00
2024-05-09T01:56:42.186Z,98664.00
2024-05-09T01:56:52.200Z,98666.00
2024-05-09T01:57:02.472Z,98664.00
2024-05-09T01:57:12.465Z,98664.00
2024-05-09T01:57:22.596Z,98664.00
2024-05-09T01:57:32.853Z,98666.00
2024-05-09T01:57:42.982Z,98666.00
2024-05-09T01:57:53.041Z,98666.00
2024-05-09T01:58:03.330Z,98666.00
2024-05-09T01:58:13.332Z,98668.00
2024-05-09T01:58:23.451Z,98664.00
2024-05-09T01:58:33.705Z,98662.00
2024-05-09T01:58:43.885Z,98668.00
2024-05-09T01:58:53.963Z,98666.00